sensor_id;sensor_type;location;lat;lon;timestamp;P1;durP1;ratioP1;P2;durP2;ratioP2
70543;SDS011;58097;48.364;-1.224;2022-11-20T00:00:57;12.43;;;7.05;;
70543;SDS011;58097;48.364;-1.224;2022-11-20T00:03:28;14.73;;;7.35;;
70543;SDS011;58097;48.364;-1.224;2022-11-20T00:05:54;15.70;;;7.90;;
70543;SDS011;58097;48.364;-1.224;2022-11-20T00:08:24;15.52;;;7.20;;
70543;SDS011;58097;48.364;-1.224;2022-11-20T00:10:50;12.80;;;7.28;;
70543;SDS011;58097;48.364;-1.224;2022-11-20T00:13:15;10.60;;;6.10;;
70543;SDS011;58097;48.364;-1.224;2022-11-20T00:15:40;14.45;;;6.78;;
70543;SDS011;58097;48.364;-1.224;2022-11-20T00:18:06;13.32;;;6.40;;
70543;SDS011;58097;48.364;-1.224;2022-11-20T00:20:31;8.63;;;5.70;;
70543;SDS011;58097;48.364;-1.224;2022-11-20T00:22:56;13.77;;;7.15;;
70543;SDS011;58097;48.364;-1.224;2022-11-20T00:25:22;12.25;;;7.28;;
70543;SDS011;58097;48.364;-1.224;2022-11-20T00:27:47;18.33;;;7.03;;
70543;SDS011;58097;48.364;-1.224;2022-11-20T00:30:12;11.55;;;6.50;;
70543;SDS011;58097;48.364;-1.224;2022-11-20T00:32:38;9.13;;;6.10;;
70543;SDS011;58097;48.364;-1.224;2022-11-20T00:35:03;10.23;;;5.85;;
70543;SDS011;58097;48.364;-1.224;2022-11-20T00:37:29;9.93;;;5.60;;
70543;SDS011;58097;48.364;-1.224;2022-11-20T00:39:54;11.25;;;5.32;;
70543;SDS011;58097;48.364;-1.224;2022-11-20T00:42:19;8.65;;;5.55;;
70543;SDS011;58097;48.364;-1.224;2022-11-20T00:44:45;12.07;;;5.22;;
70543;SDS011;58097;48.364;-1.224;2022-11-20T00:47:10;8.60;;;5.18;;
70543;SDS011;58097;48.364;-1.224;2022-11-20T00:49:35;8.07;;;4.93;;
70543;SDS011;58097;48.364;-1.224;2022-11-20T00:52:01;11.55;;;5.60;;
70543;SDS011;58097;48.364;-1.224;2022-11-20T00:54:26;16.42;;;5.82;;
70543;SDS011;58097;48.364;-1.224;2022-11-20T00:56:54;11.48;;;5.63;;
70543;SDS011;58097;48.364;-1.224;2022-11-20T00:59:20;11.70;;;4.72;;
70543;SDS011;58097;48.364;-1.224;2022-11-20T01:01:45;9.27;;;5.25;;
70543;SDS011;58097;48.364;-1.224;2022-11-20T01:04:10;9.32;;;5.32;;
70543;SDS011;58097;48.364;-1.224;2022-11-20T01:06:36;11.02;;;5.68;;
70543;SDS011;58097;48.364;-1.224;2022-11-20T01:09:07;16.83;;;6.43;;
70543;SDS011;58097;48.364;-1.224;2022-11-20T01:11:36;25.52;;;7.90;;
70543;SDS011;58097;48.364;-1.224;2022-11-20T01:14:05;14.20;;;5.18;;
70543;SDS011;58097;48.364;-1.224;2022-11-20T01:16:33;10.85;;;4.88;;
70543;SDS011;58097;48.364;-1.224;2022-11-20T01:19:00;12.52;;;4.53;;
70543;SDS011;58097;48.364;-1.224;2022-11-20T01:21:29;7.72;;;4.18;;
70543;SDS011;58097;48.364;-1.224;2022-11-20T01:23:56;12.13;;;4.25;;
70543;SDS011;58097;48.364;-1.224;2022-11-20T01:26:23;9.30;;;4.60;;
70543;SDS011;58097;48.364;-1.224;2022-11-20T01:28:51;9.98;;;3.90;;
70543;SDS011;58097;48.364;-1.224;2022-11-20T01:31:18;7.15;;;4.22;;
70543;SDS011;58097;48.364;-1.224;2022-11-20T01:33:46;11.70;;;4.78;;
70543;SDS011;58097;48.364;-1.224;2022-11-20T01:36:13;10.85;;;4.68;;
70543;SDS011;58097;48.364;-1.224;2022-11-20T01:38:40;14.93;;;4.63;;
70543;SDS011;58097;48.364;-1.224;2022-11-20T01:41:06;10.13;;;4.93;;
70543;SDS011;58097;48.364;-1.224;2022-11-20T01:43:32;10.68;;;4.75;;
70543;SDS011;58097;48.364;-1.224;2022-11-20T01:48:26;14.57;;;4.50;;
70543;SDS011;58097;48.364;-1.224;2022-11-20T01:50:57;6.10;;;3.92;;
70543;SDS011;58097;48.364;-1.224;2022-11-20T01:53:24;7.40;;;3.65;;
70543;SDS011;58097;48.364;-1.224;2022-11-20T01:55:53;6.65;;;3.85;;
70543;SDS011;58097;48.364;-1.224;2022-11-20T01:58:22;7.50;;;3.70;;
70543;SDS011;58097;48.364;-1.224;2022-11-20T02:00:52;7.55;;;4.25;;
70543;SDS011;58097;48.364;-1.224;2022-11-20T02:03:18;6.47;;;4.22;;
70543;SDS011;58097;48.364;-1.224;2022-11-20T02:05:46;11.52;;;4.35;;
70543;SDS011;58097;48.364;-1.224;2022-11-20T02:08:19;9.95;;;4.28;;
70543;SDS011;58097;48.364;-1.224;2022-11-20T02:10:46;9.98;;;4.07;;
70543;SDS011;58097;48.364;-1.224;2022-11-20T02:13:11;5.57;;;3.90;;
70543;SDS011;58097;48.364;-1.224;2022-11-20T02:15:55;7.25;;;4.13;;
70543;SDS011;58097;48.364;-1.224;2022-11-20T02:18:21;6.15;;;4.20;;
70543;SDS011;58097;48.364;-1.224;2022-11-20T02:20:48;9.95;;;4.80;;
70543;SDS011;58097;48.364;-1.224;2022-11-20T02:23:24;7.10;;;4.05;;
70543;SDS011;58097;48.364;-1.224;2022-11-20T02:25:56;8.70;;;4.88;;
70543;SDS011;58097;48.364;-1.224;2022-11-20T02:28:23;12.18;;;4.03;;
70543;SDS011;58097;48.364;-1.224;2022-11-20T02:30:48;7.63;;;4.13;;
70543;SDS011;58097;48.364;-1.224;2022-11-20T02:33:13;10.85;;;4.45;;
70543;SDS011;58097;48.364;-1.224;2022-11-20T02:35:40;6.90;;;4.13;;
70543;SDS011;58097;48.364;-1.224;2022-11-20T02:38:07;10.93;;;4.25;;
70543;SDS011;58097;48.364;-1.224;2022-11-20T02:40:33;8.07;;;3.67;;
70543;SDS011;58097;48.364;-1.224;2022-11-20T02:42:59;6.20;;;3.97;;
70543;SDS011;58097;48.364;-1.224;2022-11-20T02:45:24;12.90;;;3.78;;
70543;SDS011;58097;48.364;-1.224;2022-11-20T02:47:50;11.20;;;4.13;;
70543;SDS011;58097;48.364;-1.224;2022-11-20T02:50:16;6.40;;;3.75;;
70543;SDS011;58097;48.364;-1.224;2022-11-20T02:52:42;8.98;;;4.15;;
70543;SDS011;58097;48.364;-1.224;2022-11-20T02:55:07;7.65;;;3.65;;
70543;SDS011;58097;48.364;-1.224;2022-11-20T02:57:33;8.20;;;4.70;;
70543;SDS011;58097;48.364;-1.224;2022-11-20T02:59:58;9.52;;;4.25;;
70543;SDS011;58097;48.364;-1.224;2022-11-20T03:02:23;8.25;;;4.15;;
70543;SDS011;58097;48.364;-1.224;2022-11-20T03:04:49;9.30;;;3.40;;
70543;SDS011;58097;48.364;-1.224;2022-11-20T03:07:14;9.07;;;4.70;;
70543;SDS011;58097;48.364;-1.224;2022-11-20T03:09:40;7.20;;;4.38;;
70543;SDS011;58097;48.364;-1.224;2022-11-20T03:12:05;8.23;;;4.43;;
70543;SDS011;58097;48.364;-1.224;2022-11-20T03:14:31;6.78;;;4.07;;
70543;SDS011;58097;48.364;-1.224;2022-11-20T03:16:56;5.20;;;3.63;;
70543;SDS011;58097;48.364;-1.224;2022-11-20T03:19:22;8.88;;;3.83;;
70543;SDS011;58097;48.364;-1.224;2022-11-20T03:21:47;7.53;;;4.10;;
70543;SDS011;58097;48.364;-1.224;2022-11-20T03:24:12;9.75;;;4.03;;
70543;SDS011;58097;48.364;-1.224;2022-11-20T03:26:38;7.80;;;4.20;;
70543;SDS011;58097;48.364;-1.224;2022-11-20T03:29:04;7.93;;;4.30;;
70543;SDS011;58097;48.364;-1.224;2022-11-20T03:31:31;8.95;;;4.03;;
70543;SDS011;58097;48.364;-1.224;2022-11-20T03:34:01;12.38;;;3.80;;
70543;SDS011;58097;48.364;-1.224;2022-11-20T03:36:27;7.85;;;4.53;;
70543;SDS011;58097;48.364;-1.224;2022-11-20T03:38:54;6.97;;;4.10;;
70543;SDS011;58097;48.364;-1.224;2022-11-20T03:41:21;11.52;;;4.75;;
70543;SDS011;58097;48.364;-1.224;2022-11-20T03:46:21;6.40;;;4.30;;
70543;SDS011;58097;48.364;-1.224;2022-11-20T03:48:47;6.63;;;4.63;;
70543;SDS011;58097;48.364;-1.224;2022-11-20T03:51:14;9.38;;;4.88;;
70543;SDS011;58097;48.364;-1.224;2022-11-20T03:53:41;6.00;;;4.55;;
70543;SDS011;58097;48.364;-1.224;2022-11-20T03:56:07;7.32;;;4.50;;
70543;SDS011;58097;48.364;-1.224;2022-11-20T03:58:34;9.90;;;4.88;;
70543;SDS011;58097;48.364;-1.224;2022-11-20T04:01:10;9.70;;;4.88;;
70543;SDS011;58097;48.364;-1.224;2022-11-20T04:03:38;11.25;;;5.72;;
70543;SDS011;58097;48.364;-1.224;2022-11-20T04:06:05;6.72;;;4.38;;
70543;SDS011;58097;48.364;-1.224;2022-11-20T04:08:31;6.50;;;5.15;;
70543;SDS011;58097;48.364;-1.224;2022-11-20T04:11:07;4.55;;;4.10;;
70543;SDS011;58097;48.364;-1.224;2022-11-20T04:13:36;6.30;;;4.45;;
70543;SDS011;58097;48.364;-1.224;2022-11-20T04:16:02;8.35;;;4.28;;
70543;SDS011;58097;48.364;-1.224;2022-11-20T04:18:28;7.72;;;4.68;;
70543;SDS011;58097;48.364;-1.224;2022-11-20T04:20:53;8.63;;;4.45;;
70543;SDS011;58097;48.364;-1.224;2022-11-20T04:23:22;9.77;;;4.38;;
70543;SDS011;58097;48.364;-1.224;2022-11-20T04:25:47;6.57;;;4.70;;
70543;SDS011;58097;48.364;-1.224;2022-11-20T04:28:12;7.40;;;4.82;;
70543;SDS011;58097;48.364;-1.224;2022-11-20T04:30:38;9.85;;;5.18;;
70543;SDS011;58097;48.364;-1.224;2022-11-20T04:33:03;6.10;;;4.15;;
70543;SDS011;58097;48.364;-1.224;2022-11-20T04:35:28;8.02;;;4.60;;
70543;SDS011;58097;48.364;-1.224;2022-11-20T04:37:53;5.57;;;4.05;;
70543;SDS011;58097;48.364;-1.224;2022-11-20T04:40:19;8.10;;;3.95;;
70543;SDS011;58097;48.364;-1.224;2022-11-20T04:42:44;6.20;;;4.00;;
70543;SDS011;58097;48.364;-1.224;2022-11-20T04:45:09;6.63;;;4.35;;
70543;SDS011;58097;48.364;-1.224;2022-11-20T04:47:35;5.75;;;4.53;;
70543;SDS011;58097;48.364;-1.224;2022-11-20T04:50:00;7.55;;;4.18;;
70543;SDS011;58097;48.364;-1.224;2022-11-20T04:52:25;6.57;;;4.38;;
70543;SDS011;58097;48.364;-1.224;2022-11-20T04:54:51;6.93;;;4.38;;
70543;SDS011;58097;48.364;-1.224;2022-11-20T04:57:17;5.00;;;4.40;;
70543;SDS011;58097;48.364;-1.224;2022-11-20T04:59:43;9.02;;;4.65;;
70543;SDS011;58097;48.364;-1.224;2022-11-20T05:02:08;4.72;;;4.03;;
70543;SDS011;58097;48.364;-1.224;2022-11-20T05:04:34;6.32;;;4.63;;
70543;SDS011;58097;48.364;-1.224;2022-11-20T05:06:59;5.82;;;4.18;;
70543;SDS011;58097;48.364;-1.224;2022-11-20T05:09:25;7.70;;;4.38;;
70543;SDS011;58097;48.364;-1.224;2022-11-20T05:11:50;7.40;;;5.15;;
70543;SDS011;58097;48.364;-1.224;2022-11-20T05:14:15;4.53;;;4.03;;
70543;SDS011;58097;48.364;-1.224;2022-11-20T05:16:41;8.73;;;4.72;;
70543;SDS011;58097;48.364;-1.224;2022-11-20T05:19:06;6.22;;;4.22;;
70543;SDS011;58097;48.364;-1.224;2022-11-20T05:21:32;5.97;;;3.85;;
70543;SDS011;58097;48.364;-1.224;2022-11-20T05:23:57;4.43;;;3.75;;
70543;SDS011;58097;48.364;-1.224;2022-11-20T05:26:23;7.53;;;4.35;;
70543;SDS011;58097;48.364;-1.224;2022-11-20T05:28:49;5.22;;;4.00;;
70543;SDS011;58097;48.364;-1.224;2022-11-20T05:31:16;4.47;;;3.78;;
70543;SDS011;58097;48.364;-1.224;2022-11-20T05:33:43;6.07;;;4.10;;
70543;SDS011;58097;48.364;-1.224;2022-11-20T05:36:11;9.35;;;4.45;;
70543;SDS011;58097;48.364;-1.224;2022-11-20T05:38:38;6.38;;;4.53;;
70543;SDS011;58097;48.364;-1.224;2022-11-20T05:41:04;5.20;;;3.25;;
70543;SDS011;58097;48.364;-1.224;2022-11-20T05:43:31;6.82;;;3.90;;
70543;SDS011;58097;48.364;-1.224;2022-11-20T05:45:59;6.00;;;3.72;;
70543;SDS011;58097;48.364;-1.224;2022-11-20T05:48:25;5.47;;;3.90;;
70543;SDS011;58097;48.364;-1.224;2022-11-20T05:50:50;5.80;;;3.30;;
70543;SDS011;58097;48.364;-1.224;2022-11-20T05:53:16;4.90;;;3.20;;
70543;SDS011;58097;48.364;-1.224;2022-11-20T05:55:41;5.53;;;3.30;;
70543;SDS011;58097;48.364;-1.224;2022-11-20T05:58:06;3.55;;;3.22;;
70543;SDS011;58097;48.364;-1.224;2022-11-20T06:00:32;4.45;;;2.97;;
70543;SDS011;58097;48.364;-1.224;2022-11-20T06:02:57;4.32;;;2.97;;
70543;SDS011;58097;48.364;-1.224;2022-11-20T06:05:22;3.97;;;3.35;;
70543;SDS011;58097;48.364;-1.224;2022-11-20T06:07:48;6.32;;;2.92;;
70543;SDS011;58097;48.364;-1.224;2022-11-20T06:10:13;3.83;;;2.80;;
70543;SDS011;58097;48.364;-1.224;2022-11-20T06:12:38;7.18;;;4.05;;
70543;SDS011;58097;48.364;-1.224;2022-11-20T06:15:04;3.45;;;3.10;;
70543;SDS011;58097;48.364;-1.224;2022-11-20T06:17:30;6.20;;;3.80;;
70543;SDS011;58097;48.364;-1.224;2022-11-20T06:19:56;7.32;;;3.22;;
70543;SDS011;58097;48.364;-1.224;2022-11-20T06:22:21;7.15;;;3.47;;
70543;SDS011;58097;48.364;-1.224;2022-11-20T06:24:47;4.75;;;3.15;;
70543;SDS011;58097;48.364;-1.224;2022-11-20T06:27:12;4.63;;;2.72;;
70543;SDS011;58097;48.364;-1.224;2022-11-20T06:29:37;3.38;;;2.25;;
70543;SDS011;58097;48.364;-1.224;2022-11-20T06:32:03;3.00;;;2.58;;
70543;SDS011;58097;48.364;-1.224;2022-11-20T06:34:28;3.05;;;2.30;;
70543;SDS011;58097;48.364;-1.224;2022-11-20T06:36:54;2.67;;;1.90;;
70543;SDS011;58097;48.364;-1.224;2022-11-20T06:39:19;2.53;;;2.03;;
70543;SDS011;58097;48.364;-1.224;2022-11-20T06:41:44;5.15;;;1.80;;
70543;SDS011;58097;48.364;-1.224;2022-11-20T06:44:10;3.03;;;2.38;;
70543;SDS011;58097;48.364;-1.224;2022-11-20T06:46:35;1.77;;;1.60;;
70543;SDS011;58097;48.364;-1.224;2022-11-20T06:49:00;3.40;;;1.50;;
70543;SDS011;58097;48.364;-1.224;2022-11-20T06:51:26;1.92;;;1.52;;
70543;SDS011;58097;48.364;-1.224;2022-11-20T06:53:51;3.55;;;1.63;;
70543;SDS011;58097;48.364;-1.224;2022-11-20T06:56:16;2.65;;;1.90;;
70543;SDS011;58097;48.364;-1.224;2022-11-20T06:58:42;4.85;;;2.25;;
70543;SDS011;58097;48.364;-1.224;2022-11-20T07:01:12;4.43;;;1.88;;
70543;SDS011;58097;48.364;-1.224;2022-11-20T07:03:38;2.58;;;1.95;;
70543;SDS011;58097;48.364;-1.224;2022-11-20T07:06:05;2.30;;;1.88;;
70543;SDS011;58097;48.364;-1.224;2022-11-20T07:08:30;4.28;;;1.83;;
70543;SDS011;58097;48.364;-1.224;2022-11-20T07:11:03;2.22;;;1.98;;
70543;SDS011;58097;48.364;-1.224;2022-11-20T07:13:30;3.35;;;2.17;;
70543;SDS011;58097;48.364;-1.224;2022-11-20T07:16:00;4.35;;;2.40;;
70543;SDS011;58097;48.364;-1.224;2022-11-20T07:18:30;3.97;;;1.83;;
70543;SDS011;58097;48.364;-1.224;2022-11-20T07:20:55;2.70;;;2.33;;
70543;SDS011;58097;48.364;-1.224;2022-11-20T07:23:21;2.30;;;2.10;;
70543;SDS011;58097;48.364;-1.224;2022-11-20T07:25:46;4.38;;;2.30;;
70543;SDS011;58097;48.364;-1.224;2022-11-20T07:28:11;2.92;;;2.58;;
70543;SDS011;58097;48.364;-1.224;2022-11-20T07:30:37;5.40;;;3.05;;
70543;SDS011;58097;48.364;-1.224;2022-11-20T07:33:02;3.40;;;2.65;;
70543;SDS011;58097;48.364;-1.224;2022-11-20T07:35:28;5.43;;;3.30;;
70543;SDS011;58097;48.364;-1.224;2022-11-20T07:37:53;3.35;;;2.90;;
70543;SDS011;58097;48.364;-1.224;2022-11-20T07:40:19;8.27;;;3.47;;
70543;SDS011;58097;48.364;-1.224;2022-11-20T07:42:48;3.63;;;3.00;;
70543;SDS011;58097;48.364;-1.224;2022-11-20T07:45:15;3.25;;;2.30;;
70543;SDS011;58097;48.364;-1.224;2022-11-20T07:47:40;4.95;;;3.40;;
70543;SDS011;58097;48.364;-1.224;2022-11-20T07:50:06;5.22;;;4.07;;
70543;SDS011;58097;48.364;-1.224;2022-11-20T07:52:32;5.97;;;3.28;;
70543;SDS011;58097;48.364;-1.224;2022-11-20T07:54:57;5.03;;;3.25;;
70543;SDS011;58097;48.364;-1.224;2022-11-20T07:57:23;4.28;;;2.08;;
70543;SDS011;58097;48.364;-1.224;2022-11-20T07:59:48;3.75;;;2.55;;
70543;SDS011;58097;48.364;-1.224;2022-11-20T08:02:13;5.10;;;3.15;;
70543;SDS011;58097;48.364;-1.224;2022-11-20T08:04:39;4.65;;;3.63;;
70543;SDS011;58097;48.364;-1.224;2022-11-20T08:07:04;6.43;;;4.00;;
70543;SDS011;58097;48.364;-1.224;2022-11-20T08:09:29;4.60;;;3.17;;
70543;SDS011;58097;48.364;-1.224;2022-11-20T08:11:55;4.22;;;3.17;;
70543;SDS011;58097;48.364;-1.224;2022-11-20T08:14:38;3.03;;;2.42;;
70543;SDS011;58097;48.364;-1.224;2022-11-20T08:17:04;3.95;;;2.67;;
70543;SDS011;58097;48.364;-1.224;2022-11-20T08:19:29;6.35;;;2.38;;
70543;SDS011;58097;48.364;-1.224;2022-11-20T08:21:55;4.07;;;2.63;;
70543;SDS011;58097;48.364;-1.224;2022-11-20T08:24:20;4.20;;;2.65;;
70543;SDS011;58097;48.364;-1.224;2022-11-20T08:26:46;6.13;;;2.63;;
70543;SDS011;58097;48.364;-1.224;2022-11-20T08:29:11;3.63;;;2.67;;
70543;SDS011;58097;48.364;-1.224;2022-11-20T08:31:37;2.47;;;2.05;;
70543;SDS011;58097;48.364;-1.224;2022-11-20T08:34:02;4.25;;;2.40;;
70543;SDS011;58097;48.364;-1.224;2022-11-20T08:36:28;3.72;;;2.13;;
70543;SDS011;58097;48.364;-1.224;2022-11-20T08:38:54;3.60;;;2.05;;
70543;SDS011;58097;48.364;-1.224;2022-11-20T08:41:21;2.55;;;2.05;;
70543;SDS011;58097;48.364;-1.224;2022-11-20T08:43:54;2.45;;;2.00;;
70543;SDS011;58097;48.364;-1.224;2022-11-20T08:46:22;2.95;;;2.45;;
70543;SDS011;58097;48.364;-1.224;2022-11-20T08:48:49;3.08;;;2.22;;
70543;SDS011;58097;48.364;-1.224;2022-11-20T08:51:14;4.57;;;2.28;;
70543;SDS011;58097;48.364;-1.224;2022-11-20T08:53:41;2.33;;;1.70;;
70543;SDS011;58097;48.364;-1.224;2022-11-20T08:56:07;3.15;;;1.80;;
70543;SDS011;58097;48.364;-1.224;2022-11-20T08:58:32;3.38;;;1.67;;
70543;SDS011;58097;48.364;-1.224;2022-11-20T09:00:58;5.30;;;2.25;;
70543;SDS011;58097;48.364;-1.224;2022-11-20T09:03:23;3.92;;;1.92;;
70543;SDS011;58097;48.364;-1.224;2022-11-20T09:05:55;2.13;;;1.40;;
70543;SDS011;58097;48.364;-1.224;2022-11-20T09:08:22;10.75;;;2.53;;
70543;SDS011;58097;48.364;-1.224;2022-11-20T09:10:50;4.18;;;2.00;;
70543;SDS011;58097;48.364;-1.224;2022-11-20T09:13:16;6.32;;;1.85;;
70543;SDS011;58097;48.364;-1.224;2022-11-20T09:15:42;2.55;;;1.85;;
70543;SDS011;58097;48.364;-1.224;2022-11-20T09:18:07;7.65;;;2.28;;
70543;SDS011;58097;48.364;-1.224;2022-11-20T09:20:32;4.22;;;2.15;;
70543;SDS011;58097;48.364;-1.224;2022-11-20T09:22:58;6.25;;;2.08;;
70543;SDS011;58097;48.364;-1.224;2022-11-20T09:25:23;4.78;;;2.10;;
70543;SDS011;58097;48.364;-1.224;2022-11-20T09:27:58;10.63;;;2.50;;
70543;SDS011;58097;48.364;-1.224;2022-11-20T09:30:24;6.43;;;1.75;;
70543;SDS011;58097;48.364;-1.224;2022-11-20T09:32:49;10.52;;;1.95;;
70543;SDS011;58097;48.364;-1.224;2022-11-20T09:35:15;8.82;;;2.10;;
70543;SDS011;58097;48.364;-1.224;2022-11-20T09:37:41;12.90;;;2.75;;
70543;SDS011;58097;48.364;-1.224;2022-11-20T09:40:06;6.40;;;2.63;;
70543;SDS011;58097;48.364;-1.224;2022-11-20T09:45:16;11.93;;;3.92;;
70543;SDS011;58097;48.364;-1.224;2022-11-20T09:55:46;16.60;;;2.45;;
70543;SDS011;58097;48.364;-1.224;2022-11-20T09:58:15;9.18;;;1.73;;
70543;SDS011;58097;48.364;-1.224;2022-11-20T10:00:49;15.25;;;3.45;;
70543;SDS011;58097;48.364;-1.224;2022-11-20T10:03:19;11.13;;;3.25;;
70543;SDS011;58097;48.364;-1.224;2022-11-20T10:05:55;20.08;;;2.70;;
70543;SDS011;58097;48.364;-1.224;2022-11-20T10:08:22;12.85;;;2.85;;
70543;SDS011;58097;48.364;-1.224;2022-11-20T10:16:36;8.98;;;2.35;;
70543;SDS011;58097;48.364;-1.224;2022-11-20T10:27:24;16.85;;;3.28;;
70543;SDS011;58097;48.364;-1.224;2022-11-20T10:30:16;19.63;;;3.42;;
70543;SDS011;58097;48.364;-1.224;2022-11-20T10:33:16;12.57;;;3.30;;
70543;SDS011;58097;48.364;-1.224;2022-11-20T10:35:55;22.92;;;3.60;;
70543;SDS011;58097;48.364;-1.224;2022-11-20T10:38:34;23.88;;;4.80;;
70543;SDS011;58097;48.364;-1.224;2022-11-20T10:41:04;20.75;;;2.53;;
70543;SDS011;58097;48.364;-1.224;2022-11-20T10:43:54;21.63;;;3.20;;
70543;SDS011;58097;48.364;-1.224;2022-11-20T10:46:31;27.92;;;5.07;;
70543;SDS011;58097;48.364;-1.224;2022-11-20T10:49:02;16.63;;;3.60;;
70543;SDS011;58097;48.364;-1.224;2022-11-20T10:51:37;21.02;;;3.67;;
70543;SDS011;58097;48.364;-1.224;2022-11-20T10:54:17;18.40;;;2.83;;
70543;SDS011;58097;48.364;-1.224;2022-11-20T10:56:52;32.33;;;3.95;;
70543;SDS011;58097;48.364;-1.224;2022-11-20T11:01:56;19.23;;;4.28;;
70543;SDS011;58097;48.364;-1.224;2022-11-20T11:06:53;16.77;;;4.43;;
70543;SDS011;58097;48.364;-1.224;2022-11-20T11:09:34;15.77;;;3.03;;
70543;SDS011;58097;48.364;-1.224;2022-11-20T11:12:10;16.75;;;3.53;;
70543;SDS011;58097;48.364;-1.224;2022-11-20T11:14:47;21.15;;;3.83;;
70543;SDS011;58097;48.364;-1.224;2022-11-20T11:20:26;29.27;;;6.47;;
70543;SDS011;58097;48.364;-1.224;2022-11-20T11:25:25;21.48;;;4.10;;
70543;SDS011;58097;48.364;-1.224;2022-11-20T11:27:54;13.20;;;3.28;;
70543;SDS011;58097;48.364;-1.224;2022-11-20T11:30:22;19.10;;;4.05;;
70543;SDS011;58097;48.364;-1.224;2022-11-20T11:32:48;24.23;;;4.40;;
70543;SDS011;58097;48.364;-1.224;2022-11-20T11:35:21;33.10;;;4.65;;
70543;SDS011;58097;48.364;-1.224;2022-11-20T11:37:48;19.23;;;4.35;;
70543;SDS011;58097;48.364;-1.224;2022-11-20T11:40:16;27.88;;;5.75;;
70543;SDS011;58097;48.364;-1.224;2022-11-20T11:42:45;19.70;;;3.88;;
70543;SDS011;58097;48.364;-1.224;2022-11-20T11:45:16;25.80;;;4.28;;
70543;SDS011;58097;48.364;-1.224;2022-11-20T11:55:36;27.08;;;5.22;;
70543;SDS011;58097;48.364;-1.224;2022-11-20T12:00:49;25.92;;;3.97;;
70543;SDS011;58097;48.364;-1.224;2022-11-20T12:03:24;22.23;;;3.35;;
70543;SDS011;58097;48.364;-1.224;2022-11-20T12:05:58;23.30;;;3.22;;
70543;SDS011;58097;48.364;-1.224;2022-11-20T12:11:11;22.38;;;3.45;;
70543;SDS011;58097;48.364;-1.224;2022-11-20T12:13:47;19.90;;;3.25;;
70543;SDS011;58097;48.364;-1.224;2022-11-20T12:16:19;14.48;;;3.42;;
70543;SDS011;58097;48.364;-1.224;2022-11-20T12:18:45;16.17;;;3.00;;
70543;SDS011;58097;48.364;-1.224;2022-11-20T12:32:35;17.45;;;3.90;;
70543;SDS011;58097;48.364;-1.224;2022-11-20T12:35:24;18.63;;;3.47;;
70543;SDS011;58097;48.364;-1.224;2022-11-20T12:43:36;18.00;;;3.80;;
70543;SDS011;58097;48.364;-1.224;2022-11-20T12:46:35;17.30;;;3.10;;
70543;SDS011;58097;48.364;-1.224;2022-11-20T12:49:30;26.67;;;4.80;;
70543;SDS011;58097;48.364;-1.224;2022-11-20T12:52:25;13.77;;;3.25;;
70543;SDS011;58097;48.364;-1.224;2022-11-20T13:00:54;26.77;;;7.50;;
70543;SDS011;58097;48.364;-1.224;2022-11-20T13:06:18;14.13;;;2.88;;
70543;SDS011;58097;48.364;-1.224;2022-11-20T13:09:02;18.92;;;3.85;;
70543;SDS011;58097;48.364;-1.224;2022-11-20T13:14:10;14.13;;;4.15;;
70543;SDS011;58097;48.364;-1.224;2022-11-20T13:19:47;24.90;;;8.57;;
70543;SDS011;58097;48.364;-1.224;2022-11-20T13:22:28;15.50;;;5.82;;
70543;SDS011;58097;48.364;-1.224;2022-11-20T13:25:10;27.55;;;6.93;;
70543;SDS011;58097;48.364;-1.224;2022-11-20T13:27:47;16.55;;;4.53;;
70543;SDS011;58097;48.364;-1.224;2022-11-20T13:30:17;18.85;;;5.85;;
70543;SDS011;58097;48.364;-1.224;2022-11-20T13:32:49;17.92;;;6.38;;
70543;SDS011;58097;48.364;-1.224;2022-11-20T13:38:03;32.55;;;11.00;;
70543;SDS011;58097;48.364;-1.224;2022-11-20T13:40:31;16.38;;;4.72;;
70543;SDS011;58097;48.364;-1.224;2022-11-20T13:45:35;16.38;;;3.55;;
70543;SDS011;58097;48.364;-1.224;2022-11-20T13:48:02;14.40;;;3.08;;
70543;SDS011;58097;48.364;-1.224;2022-11-20T13:56:24;17.98;;;3.70;;
70543;SDS011;58097;48.364;-1.224;2022-11-20T13:59:08;9.48;;;2.83;;
70543;SDS011;58097;48.364;-1.224;2022-11-20T14:01:53;21.83;;;3.17;;
70543;SDS011;58097;48.364;-1.224;2022-11-20T14:04:21;18.30;;;3.15;;
70543;SDS011;58097;48.364;-1.224;2022-11-20T14:06:54;18.25;;;3.00;;
70543;SDS011;58097;48.364;-1.224;2022-11-20T14:09:26;11.00;;;2.28;;
70543;SDS011;58097;48.364;-1.224;2022-11-20T14:11:54;19.70;;;2.97;;
70543;SDS011;58097;48.364;-1.224;2022-11-20T14:14:21;19.05;;;3.92;;
70543;SDS011;58097;48.364;-1.224;2022-11-20T14:16:48;13.93;;;2.35;;
70543;SDS011;58097;48.364;-1.224;2022-11-20T14:21:46;16.55;;;3.38;;
70543;SDS011;58097;48.364;-1.224;2022-11-20T14:24:13;9.27;;;2.40;;
70543;SDS011;58097;48.364;-1.224;2022-11-20T14:26:42;10.25;;;2.20;;
70543;SDS011;58097;48.364;-1.224;2022-11-20T14:29:16;11.90;;;2.08;;
70543;SDS011;58097;48.364;-1.224;2022-11-20T14:31:47;16.95;;;3.28;;
70543;SDS011;58097;48.364;-1.224;2022-11-20T14:34:17;10.20;;;1.80;;
70543;SDS011;58097;48.364;-1.224;2022-11-20T14:36:46;13.38;;;3.40;;
70543;SDS011;58097;48.364;-1.224;2022-11-20T14:39:12;22.85;;;3.08;;
70543;SDS011;58097;48.364;-1.224;2022-11-20T14:41:51;17.77;;;3.30;;
70543;SDS011;58097;48.364;-1.224;2022-11-20T14:44:26;18.92;;;3.40;;
70543;SDS011;58097;48.364;-1.224;2022-11-20T14:46:54;23.08;;;3.63;;
70543;SDS011;58097;48.364;-1.224;2022-11-20T14:49:21;20.27;;;3.15;;
70543;SDS011;58097;48.364;-1.224;2022-11-20T14:51:46;14.57;;;3.53;;
70543;SDS011;58097;48.364;-1.224;2022-11-20T14:54:24;15.52;;;3.33;;
70543;SDS011;58097;48.364;-1.224;2022-11-20T14:56:57;15.00;;;3.25;;
70543;SDS011;58097;48.364;-1.224;2022-11-20T14:59:24;17.25;;;2.85;;
70543;SDS011;58097;48.364;-1.224;2022-11-20T15:01:58;5.30;;;2.45;;
70543;SDS011;58097;48.364;-1.224;2022-11-20T15:04:26;16.92;;;3.85;;
70543;SDS011;58097;48.364;-1.224;2022-11-20T15:06:53;17.88;;;3.58;;
70543;SDS011;58097;48.364;-1.224;2022-11-20T15:09:20;11.57;;;2.85;;
70543;SDS011;58097;48.364;-1.224;2022-11-20T15:11:55;13.90;;;2.85;;
70543;SDS011;58097;48.364;-1.224;2022-11-20T15:14:23;20.35;;;3.10;;
70543;SDS011;58097;48.364;-1.224;2022-11-20T15:16:50;9.43;;;2.88;;
70543;SDS011;58097;48.364;-1.224;2022-11-20T15:19:17;11.13;;;2.72;;
70543;SDS011;58097;48.364;-1.224;2022-11-20T15:21:45;11.48;;;2.63;;
70543;SDS011;58097;48.364;-1.224;2022-11-20T15:24:11;18.58;;;3.00;;
70543;SDS011;58097;48.364;-1.224;2022-11-20T15:26:36;17.33;;;2.47;;
70543;SDS011;58097;48.364;-1.224;2022-11-20T15:29:05;13.20;;;2.58;;
70543;SDS011;58097;48.364;-1.224;2022-11-20T15:31:33;11.95;;;2.42;;
70543;SDS011;58097;48.364;-1.224;2022-11-20T15:33:59;8.00;;;2.35;;
70543;SDS011;58097;48.364;-1.224;2022-11-20T15:36:25;11.82;;;2.20;;
70543;SDS011;58097;48.364;-1.224;2022-11-20T15:38:50;16.38;;;1.92;;
70543;SDS011;58097;48.364;-1.224;2022-11-20T15:41:15;12.02;;;2.80;;
70543;SDS011;58097;48.364;-1.224;2022-11-20T15:43:41;13.93;;;2.60;;
70543;SDS011;58097;48.364;-1.224;2022-11-20T15:46:09;12.77;;;3.22;;
70543;SDS011;58097;48.364;-1.224;2022-11-20T15:51:35;7.75;;;2.75;;
70543;SDS011;58097;48.364;-1.224;2022-11-20T15:54:09;8.88;;;2.60;;
70543;SDS011;58097;48.364;-1.224;2022-11-20T15:56:37;13.15;;;3.08;;
70543;SDS011;58097;48.364;-1.224;2022-11-20T15:59:02;14.02;;;4.78;;
70543;SDS011;58097;48.364;-1.224;2022-11-20T16:01:28;17.70;;;4.00;;
70543;SDS011;58097;48.364;-1.224;2022-11-20T16:03:53;17.83;;;6.65;;
70543;SDS011;58097;48.364;-1.224;2022-11-20T16:06:18;13.02;;;4.75;;
70543;SDS011;58097;48.364;-1.224;2022-11-20T16:08:44;12.93;;;4.32;;
70543;SDS011;58097;48.364;-1.224;2022-11-20T16:11:13;19.25;;;5.95;;
70543;SDS011;58097;48.364;-1.224;2022-11-20T16:13:39;16.45;;;4.38;;
70543;SDS011;58097;48.364;-1.224;2022-11-20T16:16:28;9.50;;;3.50;;